sensor_id;sensor_type;location;lat;lon;timestamp;pressure;altitude;pressure_sealevel;temperature;humidity
62928;BME280;51070;52.236;-0.892;2023-08-24T00:02:09;100746.90;;;19.63;71.47
62928;BME280;51070;52.236;-0.892;2023-08-24T00:04:35;100743.04;;;19.61;71.59
62928;BME280;51070;52.236;-0.892;2023-08-24T00:07:01;100748.67;;;19.58;71.79
62928;BME280;51070;52.236;-0.892;2023-08-24T00:09:27;100749.89;;;19.55;72.07
62928;BME280;51070;52.236;-0.892;2023-08-24T00:11:52;100753.44;;;19.52;72.19
62928;BME280;51070;52.236;-0.892;2023-08-24T00:14:18;100750.27;;;19.49;72.45
62928;BME280;51070;52.236;-0.892;2023-08-24T00:16:43;100746.09;;;19.47;72.61
62928;BME280;51070;52.236;-0.892;2023-08-24T00:19:08;100747.83;;;19.45;72.65
62928;BME280;51070;52.236;-0.892;2023-08-24T00:21:34;100741.34;;;19.40;72.52
62928;BME280;51070;52.236;-0.892;2023-08-24T00:23:59;100729.97;;;19.35;72.61
62928;BME280;51070;52.236;-0.892;2023-08-24T00:26:25;100713.31;;;19.33;72.82
62928;BME280;51070;52.236;-0.892;2023-08-24T00:28:50;100709.46;;;19.33;72.89
62928;BME280;51070;52.236;-0.892;2023-08-24T00:31:15;100712.46;;;19.32;72.77
62928;BME280;51070;52.236;-0.892;2023-08-24T00:33:41;100713.00;;;19.31;72.91
62928;BME280;51070;52.236;-0.892;2023-08-24T00:36:06;100716.50;;;19.28;72.95
62928;BME280;51070;52.236;-0.892;2023-08-24T00:38:32;100715.29;;;19.26;73.15
62928;BME280;51070;52.236;-0.892;2023-08-24T00:40:57;100712.66;;;19.25;73.16
62928;BME280;51070;52.236;-0.892;2023-08-24T00:43:24;100709.34;;;19.24;73.14
62928;BME280;51070;52.236;-0.892;2023-08-24T00:45:51;100706.88;;;19.24;73.07
62928;BME280;51070;52.236;-0.892;2023-08-24T00:48:17;100714.24;;;19.23;73.49
62928;BME280;51070;52.236;-0.892;2023-08-24T00:50:42;100709.19;;;19.16;73.95
62928;BME280;51070;52.236;-0.892;2023-08-24T00:53:08;100703.95;;;19.08;74.41
62928;BME280;51070;52.236;-0.892;2023-08-24T00:55:33;100700.64;;;19.02;74.89
62928;BME280;51070;52.236;-0.892;2023-08-24T00:57:58;100708.88;;;19.00;75.25
62928;BME280;51070;52.236;-0.892;2023-08-24T01:00:24;100714.67;;;18.94;75.53
62928;BME280;51070;52.236;-0.892;2023-08-24T01:02:49;100715.73;;;18.88;76.07
62928;BME280;51070;52.236;-0.892;2023-08-24T01:05:14;100721.70;;;18.78;76.57
62928;BME280;51070;52.236;-0.892;2023-08-24T01:07:40;100721.19;;;18.72;76.89
62928;BME280;51070;52.236;-0.892;2023-08-24T01:10:05;100715.40;;;18.68;76.85
62928;BME280;51070;52.236;-0.892;2023-08-24T01:15:17;100709.81;;;18.64;77.03
62928;BME280;51070;52.236;-0.892;2023-08-24T01:17:44;100703.69;;;18.58;77.01
62928;BME280;51070;52.236;-0.892;2023-08-24T01:20:11;100699.85;;;18.56;77.32
62928;BME280;51070;52.236;-0.892;2023-08-24T01:22:44;100694.41;;;18.59;77.31
62928;BME280;51070;52.236;-0.892;2023-08-24T01:25:15;100691.98;;;18.62;77.21
62928;BME280;51070;52.236;-0.892;2023-08-24T01:27:41;100688.11;;;18.64;77.07
62928;BME280;51070;52.236;-0.892;2023-08-24T01:30:07;100685.48;;;18.66;77.27
62928;BME280;51070;52.236;-0.892;2023-08-24T01:32:34;100679.36;;;18.66;77.43
62928;BME280;51070;52.236;-0.892;2023-08-24T01:35:03;100683.38;;;18.68;77.49
62928;BME280;51070;52.236;-0.892;2023-08-24T01:37:29;100689.15;;;18.71;77.51
62928;BME280;51070;52.236;-0.892;2023-08-24T01:40:15;100684.78;;;18.72;77.48
62928;BME280;51070;52.236;-0.892;2023-08-24T01:45:07;100677.58;;;18.75;77.19
62928;BME280;51070;52.236;-0.892;2023-08-24T01:47:33;100670.93;;;18.74;77.02
62928;BME280;51070;52.236;-0.892;2023-08-24T01:49:59;100662.18;;;18.75;76.88
62928;BME280;51070;52.236;-0.892;2023-08-24T01:52:24;100656.41;;;18.75;76.83
62928;BME280;51070;52.236;-0.892;2023-08-24T01:54:50;100655.36;;;18.71;77.13
62928;BME280;51070;52.236;-0.892;2023-08-24T01:57:16;100650.84;;;18.65;77.49
62928;BME280;51070;52.236;-0.892;2023-08-24T01:59:41;100649.61;;;18.59;77.62
62928;BME280;51070;52.236;-0.892;2023-08-24T02:02:06;100651.00;;;18.58;77.46
62928;BME280;51070;52.236;-0.892;2023-08-24T02:04:32;100652.05;;;18.57;77.44
62928;BME280;51070;52.236;-0.892;2023-08-24T02:06:57;100650.48;;;18.56;77.50
62928;BME280;51070;52.236;-0.892;2023-08-24T02:09:22;100636.48;;;18.57;77.71
62928;BME280;51070;52.236;-0.892;2023-08-24T02:11:47;100633.52;;;18.57;77.98
62928;BME280;51070;52.236;-0.892;2023-08-24T02:14:13;100630.55;;;18.57;78.12
62928;BME280;51070;52.236;-0.892;2023-08-24T02:16:38;100617.77;;;18.56;78.24
62928;BME280;51070;52.236;-0.892;2023-08-24T02:19:03;100602.38;;;18.56;78.25
62928;BME280;51070;52.236;-0.892;2023-08-24T02:21:29;100598.16;;;18.54;78.30
62928;BME280;51070;52.236;-0.892;2023-08-24T02:23:54;100600.77;;;18.52;78.46
62928;BME280;51070;52.236;-0.892;2023-08-24T02:26:19;100607.08;;;18.49;78.45
62928;BME280;51070;52.236;-0.892;2023-08-24T02:28:46;100613.55;;;18.45;78.36
62928;BME280;51070;52.236;-0.892;2023-08-24T02:31:11;100617.05;;;18.41;78.48
62928;BME280;51070;52.236;-0.892;2023-08-24T02:33:36;100606.58;;;18.39;78.78
62928;BME280;51070;52.236;-0.892;2023-08-24T02:36:02;100595.02;;;18.38;78.80
62928;BME280;51070;52.236;-0.892;2023-08-24T02:38:27;100589.94;;;18.35;79.16
62928;BME280;51070;52.236;-0.892;2023-08-24T02:41:02;100591.89;;;18.33;79.47
62928;BME280;51070;52.236;-0.892;2023-08-24T02:43:27;100597.14;;;18.28;79.69
62928;BME280;51070;52.236;-0.892;2023-08-24T02:45:53;100605.02;;;18.24;80.27
62928;BME280;51070;52.236;-0.892;2023-08-24T02:48:18;100605.35;;;18.25;80.37
62928;BME280;51070;52.236;-0.892;2023-08-24T02:50:45;100605.02;;;18.28;80.52
62928;BME280;51070;52.236;-0.892;2023-08-24T02:53:11;100600.27;;;18.31;80.26
62928;BME280;51070;52.236;-0.892;2023-08-24T02:55:36;100598.88;;;18.33;80.06
62928;BME280;51070;52.236;-0.892;2023-08-24T02:58:01;100598.52;;;18.36;80.04
62928;BME280;51070;52.236;-0.892;2023-08-24T03:00:26;100596.23;;;18.38;79.71
62928;BME280;51070;52.236;-0.892;2023-08-24T03:02:51;100586.98;;;18.39;79.72
62928;BME280;51070;52.236;-0.892;2023-08-24T03:05:17;100585.03;;;18.41;79.74
62928;BME280;51070;52.236;-0.892;2023-08-24T03:07:42;100587.14;;;18.44;79.68
62928;BME280;51070;52.236;-0.892;2023-08-24T03:10:07;100585.91;;;18.46;79.64
62928;BME280;51070;52.236;-0.892;2023-08-24T03:12:33;100587.30;;;18.49;79.38
62928;BME280;51070;52.236;-0.892;2023-08-24T03:14:58;100588.19;;;18.46;79.29
62928;BME280;51070;52.236;-0.892;2023-08-24T03:17:23;100579.79;;;18.41;79.38
62928;BME280;51070;52.236;-0.892;2023-08-24T03:19:48;100578.92;;;18.37;79.75
62928;BME280;51070;52.236;-0.892;2023-08-24T03:22:14;100575.61;;;18.35;79.85
62928;BME280;51070;52.236;-0.892;2023-08-24T03:24:39;100563.20;;;18.32;80.20
62928;BME280;51070;52.236;-0.892;2023-08-24T03:27:04;100555.14;;;18.32;80.20
62928;BME280;51070;52.236;-0.892;2023-08-24T03:29:29;100556.02;;;18.31;80.10
62928;BME280;51070;52.236;-0.892;2023-08-24T03:31:55;100553.41;;;18.29;80.18
62928;BME280;51070;52.236;-0.892;2023-08-24T03:34:20;100552.35;;;18.26;80.10
62928;BME280;51070;52.236;-0.892;2023-08-24T03:36:46;100556.04;;;18.22;80.32
62928;BME280;51070;52.236;-0.892;2023-08-24T03:39:12;100556.22;;;18.19;80.40
62928;BME280;51070;52.236;-0.892;2023-08-24T03:41:38;100558.50;;;18.16;80.43
62928;BME280;51070;52.236;-0.892;2023-08-24T03:44:04;100559.73;;;18.12;80.67
62928;BME280;51070;52.236;-0.892;2023-08-24T03:46:29;100562.70;;;18.08;80.86
62928;BME280;51070;52.236;-0.892;2023-08-24T03:48:54;100554.66;;;18.03;80.88
62928;BME280;51070;52.236;-0.892;2023-08-24T03:51:19;100554.67;;;17.97;81.03
62928;BME280;51070;52.236;-0.892;2023-08-24T03:53:45;100557.46;;;17.94;81.28
62928;BME280;51070;52.236;-0.892;2023-08-24T03:56:10;100553.98;;;17.92;81.58
62928;BME280;51070;52.236;-0.892;2023-08-24T03:58:35;100556.08;;;17.91;81.76
62928;BME280;51070;52.236;-0.892;2023-08-24T04:01:00;100558.86;;;17.90;82.02
62928;BME280;51070;52.236;-0.892;2023-08-24T04:03:26;100561.84;;;17.89;82.00
62928;BME280;51070;52.236;-0.892;2023-08-24T04:05:52;100561.48;;;17.89;82.15
62928;BME280;51070;52.236;-0.892;2023-08-24T04:08:17;100557.64;;;17.89;82.13
62928;BME280;51070;52.236;-0.892;2023-08-24T04:10:43;100553.79;;;17.88;82.37
62928;BME280;51070;52.236;-0.892;2023-08-24T04:13:08;100552.39;;;17.88;82.52
62928;BME280;51070;52.236;-0.892;2023-08-24T04:15:33;100549.61;;;17.86;82.60
62928;BME280;51070;52.236;-0.892;2023-08-24T04:17:58;100544.19;;;17.85;82.66
62928;BME280;51070;52.236;-0.892;2023-08-24T04:20:24;100538.08;;;17.81;82.71
62928;BME280;51070;52.236;-0.892;2023-08-24T04:22:49;100534.56;;;17.78;82.71
62928;BME280;51070;52.236;-0.892;2023-08-24T04:25:14;100530.73;;;17.76;82.73
62928;BME280;51070;52.236;-0.892;2023-08-24T04:27:39;100532.66;;;17.73;82.65
62928;BME280;51070;52.236;-0.892;2023-08-24T04:30:05;100534.73;;;17.70;82.73
62928;BME280;51070;52.236;-0.892;2023-08-24T04:32:31;100536.84;;;17.68;82.95
62928;BME280;51070;52.236;-0.892;2023-08-24T04:34:57;100534.23;;;17.66;83.15
62928;BME280;51070;52.236;-0.892;2023-08-24T04:37:22;100529.16;;;17.65;83.32
62928;BME280;51070;52.236;-0.892;2023-08-24T04:39:47;100520.06;;;17.63;83.67
62928;BME280;51070;52.236;-0.892;2023-08-24T04:42:12;100526.17;;;17.62;84.03
62928;BME280;51070;52.236;-0.892;2023-08-24T04:44:38;100522.67;;;17.61;84.01
62928;BME280;51070;52.236;-0.892;2023-08-24T04:47:03;100516.21;;;17.61;84.10
62928;BME280;51070;52.236;-0.892;2023-08-24T04:49:29;100508.34;;;17.60;84.21
62928;BME280;51070;52.236;-0.892;2023-08-24T04:51:55;100509.23;;;17.60;83.94
62928;BME280;51070;52.236;-0.892;2023-08-24T04:54:20;100515.86;;;17.61;84.26
62928;BME280;51070;52.236;-0.892;2023-08-24T04:56:46;100524.61;;;17.64;84.25
62928;BME280;51070;52.236;-0.892;2023-08-24T04:59:11;100533.33;;;17.59;83.89
62928;BME280;51070;52.236;-0.892;2023-08-24T05:01:37;100527.37;;;17.51;83.93
62928;BME280;51070;52.236;-0.892;2023-08-24T05:04:02;100512.85;;;17.44;84.48
62928;BME280;51070;52.236;-0.892;2023-08-24T05:06:27;100503.94;;;17.40;84.54
62928;BME280;51070;52.236;-0.892;2023-08-24T05:08:52;100504.98;;;17.36;84.99
62928;BME280;51070;52.236;-0.892;2023-08-24T05:11:19;100504.13;;;17.37;85.35
62928;BME280;51070;52.236;-0.892;2023-08-24T05:13:45;100495.90;;;17.39;85.70
62928;BME280;51070;52.236;-0.892;2023-08-24T05:16:10;100501.50;;;17.44;85.88
62928;BME280;51070;52.236;-0.892;2023-08-24T05:18:35;100496.79;;;17.49;85.55
62928;BME280;51070;52.236;-0.892;2023-08-24T05:21:01;100496.96;;;17.55;85.71
62928;BME280;51070;52.236;-0.892;2023-08-24T05:23:28;100488.95;;;17.60;85.62
62928;BME280;51070;52.236;-0.892;2023-08-24T05:25:53;100487.73;;;17.65;85.47
62928;BME280;51070;52.236;-0.892;2023-08-24T05:28:19;100490.19;;;17.68;85.01
62928;BME280;51070;52.236;-0.892;2023-08-24T05:30:44;100489.66;;;17.69;85.21
62928;BME280;51070;52.236;-0.892;2023-08-24T05:33:09;100487.55;;;17.75;85.34
62928;BME280;51070;52.236;-0.892;2023-08-24T05:35:35;100489.13;;;17.82;85.00
62928;BME280;51070;52.236;-0.892;2023-08-24T05:38:00;100489.64;;;17.90;84.80
62928;BME280;51070;52.236;-0.892;2023-08-24T05:40:25;100489.11;;;17.94;84.38
62928;BME280;51070;52.236;-0.892;2023-08-24T05:42:50;100494.70;;;17.99;84.10
62928;BME280;51070;52.236;-0.892;2023-08-24T05:45:16;100499.77;;;18.03;83.85
62928;BME280;51070;52.236;-0.892;2023-08-24T05:47:41;100504.13;;;18.08;83.11
62928;BME280;51070;52.236;-0.892;2023-08-24T05:50:06;100498.17;;;18.10;82.82
62928;BME280;51070;52.236;-0.892;2023-08-24T05:52:32;100503.08;;;18.13;82.27
62928;BME280;51070;52.236;-0.892;2023-08-24T05:54:57;100507.45;;;18.13;82.18
62928;BME280;51070;52.236;-0.892;2023-08-24T05:57:22;100506.40;;;18.12;81.99
62928;BME280;51070;52.236;-0.892;2023-08-24T05:59:47;100497.82;;;18.13;81.72
62928;BME280;51070;52.236;-0.892;2023-08-24T06:02:13;100495.90;;;18.14;81.65
62928;BME280;51070;52.236;-0.892;2023-08-24T06:04:38;100492.02;;;18.18;81.56
62928;BME280;51070;52.236;-0.892;2023-08-24T06:07:03;100487.83;;;18.21;81.33
62928;BME280;51070;52.236;-0.892;2023-08-24T06:09:30;100489.76;;;18.23;81.16
62928;BME280;51070;52.236;-0.892;2023-08-24T06:11:55;100491.15;;;18.19;81.21
62928;BME280;51070;52.236;-0.892;2023-08-24T06:14:20;100486.98;;;18.13;81.39
62928;BME280;51070;52.236;-0.892;2023-08-24T06:16:45;100478.95;;;18.09;81.67
62928;BME280;51070;52.236;-0.892;2023-08-24T06:19:10;100476.14;;;18.11;82.00
62928;BME280;51070;52.236;-0.892;2023-08-24T06:21:36;100476.83;;;18.16;82.13
62928;BME280;51070;52.236;-0.892;2023-08-24T06:24:01;100471.55;;;18.22;81.78
62928;BME280;51070;52.236;-0.892;2023-08-24T06:26:26;100469.96;;;18.30;81.31
62928;BME280;51070;52.236;-0.892;2023-08-24T06:28:51;100457.86;;;18.37;80.72
62928;BME280;51070;52.236;-0.892;2023-08-24T06:31:17;100456.77;;;18.47;80.86
62928;BME280;51070;52.236;-0.892;2023-08-24T06:33:42;100460.09;;;18.58;80.29
62928;BME280;51070;52.236;-0.892;2023-08-24T06:36:07;100454.09;;;18.66;79.82
62928;BME280;51070;52.236;-0.892;2023-08-24T06:38:33;100443.73;;;18.73;79.81
62928;BME280;51070;52.236;-0.892;2023-08-24T06:40:58;100432.84;;;18.80;79.33
62928;BME280;51070;52.236;-0.892;2023-08-24T06:43:25;100427.74;;;18.84;78.63
62928;BME280;51070;52.236;-0.892;2023-08-24T06:45:50;100427.90;;;18.88;78.36
62928;BME280;51070;52.236;-0.892;2023-08-24T06:48:15;100436.63;;;18.91;78.11
62928;BME280;51070;52.236;-0.892;2023-08-24T06:50:41;100432.56;;;18.95;77.96
62928;BME280;51070;52.236;-0.892;2023-08-24T06:53:06;100427.80;;;19.03;77.74
62928;BME280;51070;52.236;-0.892;2023-08-24T06:55:32;100428.95;;;19.14;77.28
62928;BME280;51070;52.236;-0.892;2023-08-24T06:57:57;100432.36;;;19.24;77.11
62928;BME280;51070;52.236;-0.892;2023-08-24T07:00:22;100435.10;;;19.33;77.03
62928;BME280;51070;52.236;-0.892;2023-08-24T07:02:48;100431.70;;;19.41;76.50
62928;BME280;51070;52.236;-0.892;2023-08-24T07:05:14;100427.80;;;19.49;76.06
62928;BME280;51070;52.236;-0.892;2023-08-24T07:07:40;100424.92;;;19.58;75.76
62928;BME280;51070;52.236;-0.892;2023-08-24T07:10:08;100424.17;;;19.63;75.50
62928;BME280;51070;52.236;-0.892;2023-08-24T07:12:33;100421.54;;;19.65;75.31
62928;BME280;51070;52.236;-0.892;2023-08-24T07:14:59;100411.10;;;19.74;74.91
62928;BME280;51070;52.236;-0.892;2023-08-24T07:17:24;100409.89;;;19.90;74.44
62928;BME280;51070;52.236;-0.892;2023-08-24T07:19:49;100412.01;;;20.03;73.85
62928;BME280;51070;52.236;-0.892;2023-08-24T07:22:15;100405.42;;;20.10;73.56
62928;BME280;51070;52.236;-0.892;2023-08-24T07:24:40;100400.18;;;20.09;73.18
62928;BME280;51070;52.236;-0.892;2023-08-24T07:27:06;100402.86;;;20.08;72.88
62928;BME280;51070;52.236;-0.892;2023-08-24T07:29:33;100401.80;;;20.07;72.92
62928;BME280;51070;52.236;-0.892;2023-08-24T07:31:59;100397.55;;;20.09;72.64
62928;BME280;51070;52.236;-0.892;2023-08-24T07:34:24;100389.74;;;20.17;72.59
62928;BME280;51070;52.236;-0.892;2023-08-24T07:36:49;100382.70;;;20.35;72.36
62928;BME280;51070;52.236;-0.892;2023-08-24T07:39:15;100384.33;;;20.58;72.15
62928;BME280;51070;52.236;-0.892;2023-08-24T07:41:42;100388.30;;;20.75;71.60
62928;BME280;51070;52.236;-0.892;2023-08-24T07:44:08;100387.83;;;20.83;71.25
62928;BME280;51070;52.236;-0.892;2023-08-24T07:46:33;100395.36;;;20.83;70.81
62928;BME280;51070;52.236;-0.892;2023-08-24T07:48:58;100391.84;;;20.84;70.41
62928;BME280;51070;52.236;-0.892;2023-08-24T07:51:23;100377.42;;;20.96;70.36
62928;BME280;51070;52.236;-0.892;2023-08-24T07:53:49;100365.38;;;21.13;70.07
62928;BME280;51070;52.236;-0.892;2023-08-24T07:56:17;100352.36;;;21.27;69.56
62928;BME280;51070;52.236;-0.892;2023-08-24T07:58:42;100346.16;;;21.39;68.93
62928;BME280;51070;52.236;-0.892;2023-08-24T08:01:07;100344.48;;;21.54;68.84
62928;BME280;51070;52.236;-0.892;2023-08-24T08:03:32;100348.69;;;21.73;67.63
62928;BME280;51070;52.236;-0.892;2023-08-24T08:05:58;100344.56;;;21.96;67.48
62928;BME280;51070;52.236;-0.892;2023-08-24T08:08:24;100338.17;;;22.32;66.51
62928;BME280;51070;52.236;-0.892;2023-08-24T08:10:57;100342.42;;;22.62;65.54
62928;BME280;51070;52.236;-0.892;2023-08-24T08:13:22;100345.06;;;22.79;64.39
62928;BME280;51070;52.236;-0.892;2023-08-24T08:15:47;100352.83;;;23.07;64.15
62928;BME280;51070;52.236;-0.892;2023-08-24T08:18:13;100342.84;;;22.97;63.88
62928;BME280;51070;52.236;-0.892;2023-08-24T08:20:39;100338.65;;;22.81;64.31
62928;BME280;51070;52.236;-0.892;2023-08-24T08:23:04;100337.10;;;22.64;64.54
62928;BME280;51070;52.236;-0.892;2023-08-24T08:25:30;100343.77;;;22.50;64.98
62928;BME280;51070;52.236;-0.892;2023-08-24T08:27:55;100335.95;;;22.53;65.61
62928;BME280;51070;52.236;-0.892;2023-08-24T08:30:20;100330.46;;;23.20;63.43
62928;BME280;51070;52.236;-0.892;2023-08-24T08:32:45;100326.14;;;23.17;63.00
62928;BME280;51070;52.236;-0.892;2023-08-24T08:35:11;100318.27;;;22.93;63.23
62928;BME280;51070;52.236;-0.892;2023-08-24T08:37:36;100309.76;;;22.74;63.54
62928;BME280;51070;52.236;-0.892;2023-08-24T08:40:02;100305.63;;;22.62;64.51
62928;BME280;51070;52.236;-0.892;2023-08-24T08:42:31;100305.80;;;22.54;64.35
62928;BME280;51070;52.236;-0.892;2023-08-24T08:44:56;100311.52;;;22.43;64.26
62928;BME280;51070;52.236;-0.892;2023-08-24T08:47:22;100315.05;;;22.35;64.20
62928;BME280;51070;52.236;-0.892;2023-08-24T08:49:48;100311.49;;;22.36;64.25
62928;BME280;51070;52.236;-0.892;2023-08-24T08:52:13;100322.84;;;23.61;62.18
62928;BME280;51070;52.236;-0.892;2023-08-24T08:54:39;100343.53;;;25.22;58.38
62928;BME280;51070;52.236;-0.892;2023-08-24T08:57:05;100352.20;;;26.89;54.68
62928;BME280;51070;52.236;-0.892;2023-08-24T08:59:31;100356.29;;;28.32;50.88
62928;BME280;51070;52.236;-0.892;2023-08-24T09:01:57;100359.13;;;28.89;48.46
62928;BME280;51070;52.236;-0.892;2023-08-24T09:04:29;100352.77;;;28.95;48.26
62928;BME280;51070;52.236;-0.892;2023-08-24T09:06:55;100357.61;;;28.84;48.06
62928;BME280;51070;52.236;-0.892;2023-08-24T09:09:21;100359.77;;;29.12;48.27
62928;BME280;51070;52.236;-0.892;2023-08-24T09:11:47;100354.33;;;29.17;47.42
62928;BME280;51070;52.236;-0.892;2023-08-24T09:14:14;100353.20;;;29.50;46.47
62928;BME280;51070;52.236;-0.892;2023-08-24T09:16:39;100346.62;;;29.67;46.18
62928;BME280;51070;52.236;-0.892;2023-08-24T09:19:05;100337.41;;;30.38;45.83
62928;BME280;51070;52.236;-0.892;2023-08-24T09:21:36;100326.95;;;31.00;44.52
62928;BME280;51070;52.236;-0.892;2023-08-24T09:24:02;100323.87;;;31.22;43.98
62928;BME280;51070;52.236;-0.892;2023-08-24T09:26:32;100326.05;;;31.86;42.25
62928;BME280;51070;52.236;-0.892;2023-08-24T09:28:58;100323.04;;;32.37;41.71
62928;BME280;51070;52.236;-0.892;2023-08-24T09:31:34;100321.73;;;33.29;40.20
62928;BME280;51070;52.236;-0.892;2023-08-24T09:34:01;100316.94;;;34.06;38.71
62928;BME280;51070;52.236;-0.892;2023-08-24T09:36:26;100319.64;;;34.62;37.11
62928;BME280;51070;52.236;-0.892;2023-08-24T09:38:51;100322.48;;;35.08;36.49
62928;BME280;51070;52.236;-0.892;2023-08-24T09:41:17;100315.81;;;35.50;35.09
62928;BME280;51070;52.236;-0.892;2023-08-24T09:43:42;100311.41;;;35.83;33.56
62928;BME280;51070;52.236;-0.892;2023-08-24T09:46:07;100316.71;;;36.09;33.81
62928;BME280;51070;52.236;-0.892;2023-08-24T09:48:33;100316.55;;;36.58;33.04
62928;BME280;51070;52.236;-0.892;2023-08-24T09:50:58;100313.40;;;36.98;32.94
62928;BME280;51070;52.236;-0.892;2023-08-24T09:53:25;100309.71;;;37.43;32.49
62928;BME280;51070;52.236;-0.892;2023-08-24T09:55:59;100308.88;;;37.83;30.79
62928;BME280;51070;52.236;-0.892;2023-08-24T09:58:25;100311.40;;;37.86;30.39
62928;BME280;51070;52.236;-0.892;2023-08-24T10:00:51;100311.11;;;37.35;30.93
62928;BME280;51070;52.236;-0.892;2023-08-24T10:03:20;100303.15;;;36.76;31.96
62928;BME280;51070;52.236;-0.892;2023-08-24T10:05:52;100293.86;;;36.20;32.68
62928;BME280;51070;52.236;-0.892;2023-08-24T10:08:22;100282.23;;;35.72;33.03
62928;BME280;51070;52.236;-0.892;2023-08-24T10:10:52;100279.07;;;35.19;33.62
62928;BME280;51070;52.236;-0.892;2023-08-24T10:13:18;100280.08;;;34.49;34.44
62928;BME280;51070;52.236;-0.892;2023-08-24T10:15:46;100282.24;;;33.84;35.18
62928;BME280;51070;52.236;-0.892;2023-08-24T10:18:13;100286.00;;;33.46;35.62
62928;BME280;51070;52.236;-0.892;2023-08-24T10:20:39;100281.34;;;33.41;35.60
62928;BME280;51070;52.236;-0.892;2023-08-24T10:23:05;100280.54;;;33.58;34.77
62928;BME280;51070;52.236;-0.892;2023-08-24T10:25:31;100288.69;;;34.04;34.59
62928;BME280;51070;52.236;-0.892;2023-08-24T10:27:57;100303.73;;;34.20;35.04
62928;BME280;51070;52.236;-0.892;2023-08-24T10:30:23;100308.88;;;34.21;34.64
62928;BME280;51070;52.236;-0.892;2023-08-24T10:32:50;100308.61;;;34.29;35.14
62928;BME280;51070;52.236;-0.892;2023-08-24T10:35:18;100309.27;;;34.05;35.47
62928;BME280;51070;52.236;-0.892;2023-08-24T10:37:44;100310.86;;;33.41;35.80
62928;BME280;51070;52.236;-0.892;2023-08-24T10:40:11;100312.05;;;32.76;36.21
62928;BME280;51070;52.236;-0.892;2023-08-24T10:42:46;100308.15;;;32.15;36.84
62928;BME280;51070;52.236;-0.892;2023-08-24T10:45:12;100303.52;;;31.55;37.74
62928;BME280;51070;52.236;-0.892;2023-08-24T10:47:44;100295.46;;;31.08;38.34
62928;BME280;51070;52.236;-0.892;2023-08-24T10:50:10;100294.06;;;30.80;38.93
62928;BME280;51070;52.236;-0.892;2023-08-24T10:52:37;100290.09;;;30.74;39.03
62928;BME280;51070;52.236;-0.892;2023-08-24T10:55:05;100295.73;;;30.97;38.99
62928;BME280;51070;52.236;-0.892;2023-08-24T10:57:43;100303.20;;;31.63;38.30
62928;BME280;51070;52.236;-0.892;2023-08-24T11:00:09;100305.45;;;31.96;37.68
62928;BME280;51070;52.236;-0.892;2023-08-24T11:02:48;100308.46;;;32.04;37.56
62928;BME280;51070;52.236;-0.892;2023-08-24T11:05:30;100319.25;;;32.00;37.44
62928;BME280;51070;52.236;-0.892;2023-08-24T11:08:01;100315.64;;;32.12;37.18
62928;BME280;51070;52.236;-0.892;2023-08-24T11:15:29;100313.92;;;31.60;37.24
62928;BME280;51070;52.236;-0.892;2023-08-24T11:20:46;100291.83;;;31.30;37.14
62928;BME280;51070;52.236;-0.892;2023-08-24T11:23:12;100289.45;;;31.10;37.84
62928;BME280;51070;52.236;-0.892;2023-08-24T11:25:38;100284.93;;;31.05;37.39
62928;BME280;51070;52.236;-0.892;2023-08-24T11:28:03;100290.30;;;30.46;38.11
62928;BME280;51070;52.236;-0.892;2023-08-24T11:30:30;100289.56;;;30.05;38.93
62928;BME280;51070;52.236;-0.892;2023-08-24T11:32:55;100291.98;;;29.76;39.60
62928;BME280;51070;52.236;-0.892;2023-08-24T11:35:20;100297.16;;;29.70;39.89
62928;BME280;51070;52.236;-0.892;2023-08-24T11:37:57;100305.30;;;29.43;40.20
62928;BME280;51070;52.236;-0.892;2023-08-24T11:40:23;100302.99;;;29.08;40.52
62928;BME280;51070;52.236;-0.892;2023-08-24T11:42:55;100300.36;;;28.69;41.24
62928;BME280;51070;52.236;-0.892;2023-08-24T11:45:20;100302.61;;;28.51;41.74
62928;BME280;51070;52.236;-0.892;2023-08-24T11:47:47;100297.82;;;28.40;41.84
62928;BME280;51070;52.236;-0.892;2023-08-24T11:50:12;100287.04;;;28.46;41.69
62928;BME280;51070;52.236;-0.892;2023-08-24T11:52:43;100288.68;;;28.86;40.94
62928;BME280;51070;52.236;-0.892;2023-08-24T11:55:10;100294.85;;;28.80;40.98
62928;BME280;51070;52.236;-0.892;2023-08-24T11:57:35;100293.65;;;28.67;40.91
62928;BME280;51070;52.236;-0.892;2023-08-24T12:00:02;100288.67;;;28.71;41.00
62928;BME280;51070;52.236;-0.892;2023-08-24T12:02:27;100276.88;;;28.69;40.94
62928;BME280;51070;52.236;-0.892;2023-08-24T12:04:53;100267.89;;;28.63;41.26
62928;BME280;51070;52.236;-0.892;2023-08-24T12:07:20;100263.27;;;28.82;41.11
62928;BME280;51070;52.236;-0.892;2023-08-24T12:09:45;100262.41;;;28.99;40.82
62928;BME280;51070;52.236;-0.892;2023-08-24T12:12:17;100251.41;;;29.02;40.59
62928;BME280;51070;52.236;-0.892;2023-08-24T12:14:44;100248.08;;;29.07;40.77
62928;BME280;51070;52.236;-0.892;2023-08-24T12:17:10;100247.77;;;29.20;40.50
62928;BME280;51070;52.236;-0.892;2023-08-24T12:19:35;100246.54;;;29.30;40.06
62928;BME280;51070;52.236;-0.892;2023-08-24T12:22:00;100239.61;;;29.37;39.50
62928;BME280;51070;52.236;-0.892;2023-08-24T12:24:25;100233.48;;;29.39;39.59
62928;BME280;51070;52.236;-0.892;2023-08-24T12:26:57;100231.13;;;29.39;39.49
62928;BME280;51070;52.236;-0.892;2023-08-24T12:29:28;100230.95;;;29.40;39.37
62928;BME280;51070;52.236;-0.892;2023-08-24T12:31:57;100224.55;;;29.39;39.13
62928;BME280;51070;52.236;-0.892;2023-08-24T12:34:23;100212.34;;;29.41;39.01
62928;BME280;51070;52.236;-0.892;2023-08-24T12:36:48;100198.48;;;29.47;38.79
62928;BME280;51070;52.236;-0.892;2023-08-24T12:39:13;100188.43;;;29.46;38.61
62928;BME280;51070;52.236;-0.892;2023-08-24T12:41:40;100198.64;;;29.44;38.82
62928;BME280;51070;52.236;-0.892;2023-08-24T12:44:05;100199.84;;;29.48;38.42
62928;BME280;51070;52.236;-0.892;2023-08-24T12:46:31;100201.60;;;29.56;38.23
62928;BME280;51070;52.236;-0.892;2023-08-24T12:48:56;100199.23;;;29.56;37.73